Time;durP1;ratioP1;P1;durP2;ratioP2;P2;SDS_P1;SDS_P2;PMS_P1;PMS_P2;Temp;Humidity;BMP_temperature;BMP_pressure;BME280_temperature;BME280_humidity;BME280_pressure;Samples;Min_cycle;Max_cycle;Signal;HPM_P1;HPM_P2
2022/04/17 00:02:05;;;;;;;7.50;6.45;;;17.00;77.60;;;;;;4951118;28;95871;-57
2022/04/17 00:04:36;;;;;;;6.63;5.93;;;17.00;77.70;;;;;;4953083;28;95722;-58
2022/04/17 00:07:08;;;;;;;7.18;6.47;;;17.00;77.70;;;;;;4960500;28;95822;-57
2022/04/17 00:09:38;;;;;;;6.97;6.27;;;17.00;77.60;;;;;;4949671;28;98306;-58
2022/04/17 00:12:08;;;;;;;7.45;6.15;;;17.00;77.60;;;;;;4955091;28;95806;-57
2022/04/17 00:14:40;;;;;;;8.88;5.65;;;17.10;77.60;;;;;;4963561;28;95724;-56
2022/04/17 00:17:13;;;;;;;6.65;6.05;;;17.10;77.50;;;;;;4935669;28;96607;-58
2022/04/17 00:19:44;;;;;;;8.18;6.50;;;17.10;77.60;;;;;;4930987;28;95301;-58
2022/04/17 00:22:17;;;;;;;6.45;5.85;;;17.10;77.50;;;;;;4933048;28;96121;-57
2022/04/17 00:24:47;;;;;;;6.10;5.50;;;17.10;77.40;;;;;;4946360;28;95651;-58
2022/04/17 00:27:17;;;;;;;6.18;5.57;;;17.10;77.50;;;;;;4941091;28;95925;-56
2022/04/17 00:29:47;;;;;;;6.82;6.10;;;17.20;77.50;;;;;;4943383;28;96656;-58
2022/04/17 00:32:18;;;;;;;6.28;5.68;;;17.20;77.40;;;;;;4947668;28;95361;-56
2022/04/17 00:34:50;;;;;;;5.80;5.20;;;17.20;77.40;;;;;;4966477;28;95796;-58
2022/04/17 00:37:20;;;;;;;5.15;4.75;;;17.20;77.40;;;;;;4962022;28;95809;-58
2022/04/17 00:39:51;;;;;;;5.75;5.25;;;17.20;77.40;;;;;;4952740;28;96370;-59
2022/04/17 00:42:22;;;;;;;5.90;5.20;;;17.20;77.30;;;;;;4955383;28;95847;-58
2022/04/17 00:44:53;;;;;;;5.65;4.65;;;17.20;77.30;;;;;;4965248;28;95615;-59
2022/04/17 00:47:24;;;;;;;;;;;17.30;77.20;;;;;;4949475;28;98446;-57
2022/04/17 00:49:53;;;;;;;7.57;5.95;;;17.30;77.40;;;;;;4967742;28;95837;-60
2022/04/17 00:52:23;;;;;;;6.13;5.53;;;17.30;77.30;;;;;;4958672;28;95650;-56
2022/04/17 00:54:54;;;;;;;5.55;4.75;;;17.30;77.30;;;;;;4952619;28;95956;-56
2022/04/17 00:57:24;;;;;;;5.25;4.55;;;17.30;77.30;;;;;;4955336;28;96515;-57
2022/04/17 00:59:56;;;;;;;5.97;5.38;;;17.40;77.30;;;;;;4950694;28;95885;-55
2022/04/17 01:02:25;;;;;;;;;;;17.40;77.30;;;;;;4953421;28;95974;-56
2022/04/17 01:04:56;;;;;;;5.05;4.55;;;17.40;77.20;;;;;;4971562;28;95861;-55
2022/04/17 01:07:26;;;;;;;4.72;4.32;;;17.40;77.30;;;;;;4964237;28;96324;-56
2022/04/17 01:09:57;;;;;;;6.23;4.97;;;17.50;77.30;;;;;;4954635;28;95753;-58
2022/04/17 01:12:28;;;;;;;5.35;4.85;;;17.50;77.20;;;;;;4954035;28;95592;-57
2022/04/17 01:14:59;;;;;;;8.07;5.60;;;17.50;77.30;;;;;;4950979;28;96134;-54
2022/04/17 01:17:29;;;;;;;5.50;4.30;;;17.50;77.20;;;;;;4945228;28;95903;-58
2022/04/17 01:20:01;;;;;;;;;;;17.60;77.20;;;;;;4953859;28;96406;-57
2022/04/17 01:22:33;;;;;;;5.22;4.72;;;17.60;77.20;;;;;;4957915;28;95310;-58
2022/04/17 01:27:53;;;;;;;5.07;4.57;;;17.70;77.80;;;;;;4964689;28;95897;-57
2022/04/17 01:30:23;;;;;;;5.38;4.88;;;17.70;77.20;;;;;;4943927;28;95344;-58
2022/04/17 01:32:55;;;;;;;4.68;4.25;;;17.70;77.20;;;;;;4954137;28;95879;-57
2022/04/17 01:35:26;;;;;;;5.27;4.73;;;17.80;77.10;;;;;;4965453;28;95983;-58
2022/04/17 01:37:57;;;;;;;6.10;4.55;;;17.80;77.10;;;;;;4954074;28;96841;-58
2022/04/17 01:40:28;;;;;;;4.82;4.32;;;17.80;77.00;;;;;;4951377;28;96259;-58
2022/04/17 01:42:59;;;;;;;;;;;17.90;77.00;;;;;;4961610;28;95693;-58
2022/04/17 01:45:31;;;;;;;5.20;4.70;;;17.90;76.90;;;;;;4948740;28;95301;-62
2022/04/17 01:48:02;;;;;;;5.35;4.10;;;17.90;76.90;;;;;;4934747;28;95837;-60
2022/04/17 01:50:33;;;;;;;4.43;4.03;;;18.00;76.70;;;;;;4947291;28;96016;-59
2022/04/17 01:53:03;;;;;;;5.23;4.63;;;18.00;76.80;;;;;;4944676;28;95487;-57
2022/04/17 01:55:35;;;;;;;5.63;4.88;;;18.00;76.80;;;;;;4939786;28;95635;-57
2022/04/17 01:58:05;;;;;;;4.70;4.30;;;18.10;76.70;;;;;;4944083;28;95952;-58
2022/04/17 02:00:35;;;;;;;5.43;4.63;;;18.10;76.60;;;;;;4935732;28;95831;-59
2022/04/17 02:03:06;;;;;;;4.47;3.95;;;18.20;76.50;;;;;;4936817;28;96050;-57
2022/04/17 02:05:36;;;;;;;4.53;4.13;;;18.20;76.50;;;;;;4930350;28;95770;-57
2022/04/17 02:08:07;;;;;;;5.13;4.63;;;18.30;76.50;;;;;;4935967;28;96456;-58
2022/04/17 02:10:37;;;;;;;4.55;4.03;;;18.30;76.40;;;;;;4935446;28;95400;-59
2022/04/17 02:13:08;;;;;;;;;;;18.30;76.30;;;;;;4933959;28;95950;-58
2022/04/17 02:15:39;;;;;;;5.03;4.10;;;18.30;76.20;;;;;;4931213;28;96477;-58
2022/04/17 02:18:11;;;;;;;4.53;4.10;;;18.40;76.20;;;;;;4962401;28;95900;-58
2022/04/17 02:20:43;;;;;;;4.13;3.72;;;18.40;76.20;;;;;;4948697;28;96284;-58
2022/04/17 02:23:14;;;;;;;;;;;18.50;76.10;;;;;;4950679;28;95827;-59
2022/04/17 02:25:45;;;;;;;4.10;3.70;;;18.50;76.10;;;;;;4963160;28;95742;-58
2022/04/17 02:28:16;;;;;;;4.82;4.43;;;18.50;76.00;;;;;;4960124;28;96107;-59
2022/04/17 02:30:46;;;;;;;3.95;3.65;;;18.60;76.00;;;;;;4954250;28;97810;-57
2022/04/17 02:33:18;;;;;;;4.18;3.88;;;18.60;75.90;;;;;;4956942;28;96024;-58
2022/04/17 02:35:49;;;;;;;5.28;3.85;;;18.60;75.80;;;;;;4968070;28;95819;-58
2022/04/17 02:38:19;;;;;;;4.22;3.58;;;18.70;75.70;;;;;;4954529;28;96034;-60
2022/04/17 02:40:51;;;;;;;4.40;4.00;;;18.70;75.70;;;;;;4954789;28;95907;-58
2022/04/17 02:43:22;;;;;;;3.60;3.13;;;18.80;75.70;;;;;;4960852;28;95628;-55
2022/04/17 02:45:53;;;;;;;4.55;3.95;;;18.80;75.60;;;;;;4955224;28;95825;-60
2022/04/17 02:48:23;;;;;;;;;;;18.90;75.50;;;;;;4953034;28;95984;-59
2022/04/17 02:50:55;;;;;;;4.18;3.78;;;18.90;76.20;;;;;;4963916;28;95661;-54
2022/04/17 02:53:26;;;;;;;3.60;3.33;;;18.90;75.40;;;;;;4952214;28;96221;-58
2022/04/17 02:55:56;;;;;;;3.28;3.05;;;19.00;75.40;;;;;;4948713;28;95960;-59
2022/04/17 02:58:26;;;;;;;3.58;3.22;;;19.00;75.40;;;;;;4956584;28;96768;-57
2022/04/17 03:06:34;;;;;;;3.33;3.03;;;19.10;75.20;;;;;;4946162;28;95714;-59
2022/04/17 03:09:04;;;;;;;;;;;19.20;75.20;;;;;;4940845;28;96482;-58
2022/04/17 03:11:34;;;;;;;3.42;3.13;;;19.20;75.10;;;;;;4929259;28;95594;-59
2022/04/17 03:14:04;;;;;;;3.55;3.25;;;19.30;75.10;;;;;;4936702;28;95354;-59
2022/04/17 03:16:35;;;;;;;3.72;3.25;;;19.30;74.90;;;;;;4931241;28;95427;-58
2022/04/17 03:19:07;;;;;;;3.42;3.13;;;19.40;75.00;;;;;;4939875;28;96600;-58
2022/04/17 03:21:39;;;;;;;3.60;3.30;;;19.40;74.90;;;;;;4933376;28;96097;-61
2022/04/17 03:24:12;;;;;;;3.53;3.22;;;19.40;74.90;;;;;;4945485;28;95810;-58
2022/04/17 03:26:43;;;;;;;4.05;3.65;;;19.50;74.80;;;;;;4936418;28;95905;-54
2022/04/17 03:29:14;;;;;;;3.45;2.80;;;19.50;74.70;;;;;;4938103;28;95912;-57
2022/04/17 03:31:44;;;;;;;3.00;2.75;;;19.50;74.60;;;;;;4936287;28;95428;-56
2022/04/17 03:34:16;;;;;;;3.15;2.92;;;19.60;74.50;;;;;;4951141;28;95334;-58
2022/04/17 03:36:47;;;;;;;;;;;19.60;74.50;;;;;;4952117;28;95377;-58
2022/04/17 03:39:17;;;;;;;4.30;3.40;;;19.70;74.60;;;;;;4958426;28;96140;-58
2022/04/17 03:41:48;;;;;;;3.30;2.80;;;19.70;74.40;;;;;;4952234;28;95446;-58
2022/04/17 03:44:19;;;;;;;3.63;3.13;;;19.70;74.30;;;;;;4955591;28;95715;-59
2022/04/17 03:46:51;;;;;;;3.35;2.90;;;19.80;74.30;;;;;;4942113;28;95831;-58
2022/04/17 03:49:21;;;;;;;3.30;3.00;;;19.80;74.40;;;;;;4956528;28;95859;-60
2022/04/17 03:51:51;;;;;;;2.90;2.70;;;19.80;74.20;;;;;;4949244;28;95344;-57
2022/04/17 03:54:21;;;;;;;2.88;2.67;;;19.90;74.20;;;;;;4954419;28;95836;-58
2022/04/17 03:56:51;;;;;;;3.13;2.92;;;19.90;74.10;;;;;;4955741;28;96052;-55
2022/04/17 03:59:21;;;;;;;3.20;3.00;;;19.90;74.10;;;;;;4959366;28;96940;-57
2022/04/17 04:01:51;;;;;;;3.35;2.88;;;20.00;74.00;;;;;;4946086;28;96685;-57
2022/04/17 04:04:22;;;;;;;;;;;20.00;73.90;;;;;;4949217;28;96082;-59
2022/04/17 04:06:53;;;;;;;2.88;2.63;;;20.10;73.90;;;;;;4958975;28;95256;-59
2022/04/17 04:09:23;;;;;;;2.75;2.55;;;20.00;73.80;;;;;;4960171;28;96009;-57
2022/04/17 04:11:53;;;;;;;3.05;2.75;;;20.10;73.90;;;;;;4953244;28;97860;-55
2022/04/17 04:14:23;;;;;;;2.60;2.38;;;20.10;73.80;;;;;;4956804;28;95695;-59
2022/04/17 04:16:53;;;;;;;2.95;2.63;;;20.10;73.80;;;;;;4947434;28;97483;-58
2022/04/17 04:19:24;;;;;;;;;;;20.20;73.80;;;;;;4950025;28;95898;-59
2022/04/17 04:21:54;;;;;;;2.75;2.53;;;20.20;73.60;;;;;;4957446;28;95390;-58
2022/04/17 04:24:26;;;;;;;2.60;2.30;;;20.20;73.60;;;;;;4957734;28;95810;-57
2022/04/17 04:29:44;;;;;;;3.00;2.20;;;20.30;73.40;;;;;;4963629;28;96264;-58
2022/04/17 04:32:14;;;;;;;2.50;2.30;;;20.30;73.50;;;;;;4940431;28;98672;-58
2022/04/17 04:34:45;;;;;;;;;;;20.40;73.50;;;;;;4933871;28;95376;-58
2022/04/17 04:37:16;;;;;;;2.25;2.13;;;20.40;73.40;;;;;;4938034;28;96032;-58
2022/04/17 04:39:46;;;;;;;2.58;2.25;;;20.40;73.20;;;;;;4938787;28;95968;-56
2022/04/17 04:42:17;;;;;;;2.33;2.13;;;20.50;73.20;;;;;;4943786;28;95931;-55
2022/04/17 04:46:06;;;;;;;2.93;2.73;;;20.50;73.20;;;;;;4947309;28;96138;-56
2022/04/17 04:47:39;;;;;;;2.20;2.10;;;20.50;73.10;;;;;;4954729;28;95771;-57
2022/04/17 04:50:10;;;;;;;2.13;1.92;;;20.60;73.10;;;;;;4949813;28;96223;-56
2022/04/17 04:52:40;;;;;;;2.72;2.00;;;20.60;73.10;;;;;;4953518;28;96062;-57
2022/04/17 04:55:10;;;;;;;1.88;1.77;;;20.60;73.00;;;;;;4966345;28;95689;-58
2022/04/17 04:57:40;;;;;;;2.63;2.42;;;20.60;73.10;;;;;;4960594;28;95640;-58
2022/04/17 05:00:10;;;;;;;2.33;2.13;;;20.60;72.90;;;;;;4957309;28;95690;-57
2022/04/17 05:02:40;;;;;;;2.35;2.15;;;20.70;72.90;;;;;;4976196;28;95807;-59
2022/04/17 05:05:11;;;;;;;3.08;2.38;;;20.70;72.90;;;;;;4964818;28;95924;-58
2022/04/17 05:07:42;;;;;;;2.47;1.50;;;20.70;72.80;;;;;;4956126;28;95205;-58
2022/04/17 05:10:12;;;;;;;2.08;1.95;;;20.70;72.70;;;;;;4959194;28;96036;-58
2022/04/17 05:12:42;;;;;;;1.73;1.63;;;20.70;72.70;;;;;;4959254;28;95839;-57
2022/04/17 05:15:13;;;;;;;1.98;1.88;;;20.80;72.70;;;;;;4947533;28;97592;-58
2022/04/17 05:17:43;;;;;;;2.50;2.30;;;20.80;72.70;;;;;;4955594;28;95662;-58
2022/04/17 05:20:17;;;;;;;;;;;20.80;72.60;;;;;;4961051;28;95841;-57
2022/04/17 05:22:56;;;;;;;1.85;1.75;;;20.80;72.50;;;;;;4963166;28;95791;-58
2022/04/17 05:25:28;;;;;;;1.60;1.50;;;20.90;72.80;;;;;;4961927;28;96041;-58
2022/04/17 05:27:57;;;;;;;2.13;2.00;;;20.90;72.50;;;;;;4955878;28;97102;-58
2022/04/17 05:30:32;;;;;;;1.70;1.60;;;20.90;72.40;;;;;;4948265;28;95848;-58
2022/04/17 05:33:03;;;;;;;1.60;1.50;;;20.90;72.40;;;;;;4931674;28;96018;-58
2022/04/17 05:35:36;;;;;;;2.20;2.00;;;20.90;72.30;;;;;;4939132;28;96204;-58
2022/04/17 05:38:08;;;;;;;2.10;1.92;;;21.00;72.30;;;;;;4945971;28;95889;-57
2022/04/17 05:40:44;;;;;;;1.92;1.83;;;21.00;72.30;;;;;;4934016;28;96862;-58
2022/04/17 05:43:14;;;;;;;2.00;1.90;;;21.00;72.30;;;;;;4939181;28;96088;-58
2022/04/17 05:45:48;;;;;;;;;;;21.00;72.30;;;;;;4935339;28;95254;-57
2022/04/17 05:48:19;;;;;;;1.95;1.85;;;21.00;72.10;;;;;;4943838;28;95607;-60
2022/04/17 05:50:50;;;;;;;2.00;1.80;;;21.10;72.20;;;;;;4945517;28;96663;-56
2022/04/17 05:53:20;;;;;;;1.80;1.70;;;21.10;72.10;;;;;;4940113;28;95721;-57
2022/04/17 05:55:50;;;;;;;1.80;1.70;;;21.10;72.10;;;;;;4939904;28;95693;-60
2022/04/17 05:58:20;;;;;;;1.90;1.80;;;21.10;71.90;;;;;;4952472;28;95638;-56
2022/04/17 06:00:50;;;;;;;2.30;2.00;;;21.10;72.00;;;;;;4929753;28;95803;-55
2022/04/17 06:03:20;;;;;;;2.15;1.98;;;21.10;72.00;;;;;;4928699;28;95722;-58
2022/04/17 06:05:50;;;;;;;1.95;1.67;;;21.10;72.00;;;;;;4941042;28;95598;-58
2022/04/17 06:08:22;;;;;;;1.75;1.65;;;21.20;71.90;;;;;;4940563;28;95816;-54
2022/04/17 06:10:52;;;;;;;1.83;1.73;;;21.20;72.00;;;;;;4933728;28;95839;-59
2022/04/17 06:13:22;;;;;;;1.48;1.30;;;21.20;71.90;;;;;;4941823;28;95542;-58
2022/04/17 06:15:53;;;;;;;1.73;1.63;;;21.20;71.90;;;;;;4928507;28;95716;-58
2022/04/17 06:18:24;;;;;;;1.75;1.65;;;21.20;71.80;;;;;;4950510;28;96256;-57
2022/04/17 06:20:55;;;;;;;1.83;1.73;;;21.20;71.80;;;;;;4952265;28;96447;-59
2022/04/17 06:23:27;;;;;;;2.03;1.90;;;21.20;71.70;;;;;;4950996;28;96010;-57
2022/04/17 06:25:59;;;;;;;1.67;1.58;;;21.30;71.70;;;;;;4953986;28;95806;-58
2022/04/17 06:28:29;;;;;;;1.70;1.60;;;21.30;71.70;;;;;;4956544;28;95717;-58
2022/04/17 06:31:00;;;;;;;2.08;1.88;;;21.30;71.70;;;;;;4946073;28;97963;-58
2022/04/17 06:33:31;;;;;;;2.00;1.90;;;21.30;71.60;;;;;;4951562;28;95726;-58
2022/04/17 06:36:02;;;;;;;2.08;1.88;;;21.30;71.50;;;;;;4961052;28;95705;-58
2022/04/17 06:38:33;;;;;;;1.88;1.73;;;21.30;71.50;;;;;;4957897;28;95700;-57
2022/04/17 06:41:04;;;;;;;1.60;1.50;;;21.30;71.50;;;;;;4951034;28;95877;-58
2022/04/17 06:43:36;;;;;;;1.88;1.77;;;21.30;71.50;;;;;;4955332;28;95599;-58
2022/04/17 06:46:07;;;;;;;1.65;1.55;;;21.30;71.30;;;;;;4950924;28;95888;-60
2022/04/17 06:48:37;;;;;;;1.70;1.43;;;21.30;71.30;;;;;;4953717;28;96019;-56
2022/04/17 06:51:07;;;;;;;2.05;1.85;;;21.30;71.30;;;;;;4957173;28;96543;-57
2022/04/17 06:53:37;;;;;;;2.30;1.83;;;21.30;71.30;;;;;;4960578;28;96014;-59
2022/04/17 06:56:12;;;;;;;1.55;1.45;;;21.30;71.10;;;;;;4954022;28;95944;-56
2022/04/17 06:58:42;;;;;;;3.58;1.65;;;21.30;71.20;;;;;;4951328;28;95349;-58
2022/04/17 07:01:14;;;;;;;2.33;1.70;;;21.30;71.20;;;;;;4945477;28;96009;-59
2022/04/17 07:03:48;;;;;;;1.92;1.80;;;21.40;71.20;;;;;;4959996;28;96085;-58
2022/04/17 07:06:20;;;;;;;1.75;1.60;;;21.40;71.10;;;;;;4953130;28;95697;-57
2022/04/17 07:08:51;;;;;;;1.83;1.70;;;21.40;71.10;;;;;;4968510;28;95893;-59
2022/04/17 07:11:23;;;;;;;1.80;1.70;;;21.40;71.10;;;;;;4952886;28;96017;-59
2022/04/17 07:13:53;;;;;;;1.80;1.70;;;21.40;71.10;;;;;;4962698;28;95491;-59
2022/04/17 07:16:24;;;;;;;2.05;1.95;;;21.40;71.10;;;;;;4954261;28;95649;-59
2022/04/17 07:18:56;;;;;;;2.20;2.00;;;21.40;71.10;;;;;;4956966;28;95777;-58
2022/04/17 07:21:27;;;;;;;1.98;1.88;;;21.40;71.10;;;;;;4949764;28;96443;-56
2022/04/17 07:23:59;;;;;;;1.95;1.77;;;21.40;70.90;;;;;;4950843;28;95715;-58
2022/04/17 07:26:29;;;;;;;1.77;1.67;;;21.40;70.90;;;;;;4958510;28;95867;-59
2022/04/17 07:28:59;;;;;;;1.70;1.60;;;21.40;71.00;;;;;;4960766;28;95604;-55
2022/04/17 07:31:30;;;;;;;1.60;1.50;;;21.40;70.90;;;;;;4946619;28;96017;-59
2022/04/17 07:34:02;;;;;;;2.17;1.98;;;21.40;71.00;;;;;;4938713;28;95731;-57
2022/04/17 07:36:33;;;;;;;1.92;1.80;;;21.40;70.90;;;;;;4935574;28;95312;-59
2022/04/17 07:39:04;;;;;;;2.08;1.80;;;21.40;70.90;;;;;;4938004;28;95756;-59
2022/04/17 07:41:34;;;;;;;;;;;21.40;70.90;;;;;;4937450;28;96044;-58
2022/04/17 07:44:05;;;;;;;2.10;1.90;;;21.40;70.90;;;;;;4933108;28;98435;-59
2022/04/17 07:46:37;;;;;;;1.98;1.70;;;21.40;70.90;;;;;;4939916;28;95836;-57
2022/04/17 07:49:07;;;;;;;1.45;1.35;;;21.30;70.80;;;;;;4947793;28;95362;-56
2022/04/17 07:51:38;;;;;;;2.08;1.88;;;21.40;71.00;;;;;;4962954;28;96017;-58
2022/04/17 07:54:08;;;;;;;1.67;1.58;;;21.30;70.70;;;;;;4957418;28;95763;-58
2022/04/17 07:56:38;;;;;;;2.20;1.60;;;21.30;70.90;;;;;;4951503;28;95755;-57
2022/04/17 07:59:08;;;;;;;1.80;1.60;;;21.30;70.80;;;;;;4962020;28;95665;-58
2022/04/17 08:01:40;;;;;;;1.55;1.45;;;21.30;70.80;;;;;;4949245;28;95849;-59
2022/04/17 08:04:10;;;;;;;1.98;1.60;;;21.30;70.70;;;;;;4966086;28;95382;-59
2022/04/17 08:06:43;;;;;;;1.88;1.77;;;21.30;70.80;;;;;;4959571;28;95741;-57
2022/04/17 08:09:15;;;;;;;1.73;1.63;;;21.30;70.80;;;;;;4960720;28;95380;-59
2022/04/17 08:11:51;;;;;;;2.13;1.95;;;21.30;70.90;;;;;;4956318;28;96014;-59
2022/04/17 08:14:21;;;;;;;1.70;1.60;;;21.30;70.90;;;;;;4953764;28;95697;-58
2022/04/17 08:16:52;;;;;;;2.30;1.70;;;21.30;71.00;;;;;;4953793;28;96568;-57
2022/04/17 08:19:24;;;;;;;2.10;2.00;;;21.30;70.80;;;;;;4960316;28;96152;-59
2022/04/17 08:21:54;;;;;;;2.53;1.73;;;21.30;70.70;;;;;;4954105;28;96012;-57
2022/04/17 08:24:26;;;;;;;1.85;1.67;;;21.30;70.80;;;;;;4957176;28;95317;-59
2022/04/17 08:26:56;;;;;;;1.77;1.67;;;21.30;70.80;;;;;;4960360;28;96081;-57
2022/04/17 08:29:26;;;;;;;2.15;1.95;;;21.30;70.70;;;;;;4955404;28;97707;-59
2022/04/17 08:31:56;;;;;;;1.77;1.65;;;21.30;70.80;;;;;;4945936;28;97908;-56
2022/04/17 08:34:29;;;;;;;1.75;1.65;;;21.20;70.80;;;;;;4963189;28;95759;-58
2022/04/17 08:37:00;;;;;;;1.95;1.80;;;21.20;70.80;;;;;;4959702;28;95354;-59
2022/04/17 08:39:31;;;;;;;2.00;1.90;;;21.30;70.80;;;;;;4954475;28;97659;-58
2022/04/17 08:42:04;;;;;;;1.90;1.80;;;21.20;70.70;;;;;;4956106;28;96614;-59
2022/04/17 08:44:40;;;;;;;1.98;1.88;;;21.20;70.80;;;;;;4958942;28;95822;-59
2022/04/17 08:47:11;;;;;;;1.60;1.50;;;21.20;70.70;;;;;;4945548;28;96128;-59
2022/04/17 08:49:42;;;;;;;1.92;1.83;;;21.20;70.80;;;;;;4968506;28;95839;-57
2022/04/17 08:52:15;;;;;;;2.10;1.90;;;21.20;70.80;;;;;;4967963;28;97047;-59
2022/04/17 08:54:47;;;;;;;1.67;1.58;;;21.20;70.90;;;;;;4955801;28;95651;-57
2022/04/17 08:57:17;;;;;;;2.40;2.20;;;21.20;70.70;;;;;;4953204;28;95663;-58
2022/04/17 08:59:50;;;;;;;2.50;1.90;;;21.20;70.70;;;;;;4958869;28;95697;-58
2022/04/17 09:02:20;;;;;;;1.90;1.80;;;21.20;70.80;;;;;;4942154;28;98283;-61
2022/04/17 09:04:51;;;;;;;2.30;2.10;;;21.20;70.80;;;;;;4973853;28;97231;-59
2022/04/17 09:07:22;;;;;;;2.30;2.10;;;21.20;70.70;;;;;;4962821;28;95920;-58
2022/04/17 09:09:55;;;;;;;1.77;1.63;;;21.20;70.80;;;;;;4957567;28;95637;-59
2022/04/17 09:12:26;;;;;;;1.83;1.65;;;21.20;70.80;;;;;;4962522;28;96344;-58
2022/04/17 09:14:58;;;;;;;2.92;2.10;;;21.20;70.80;;;;;;4957016;28;96235;-54
2022/04/17 09:17:35;;;;;;;2.05;1.85;;;21.20;70.60;;;;;;4950708;28;95663;-59
2022/04/17 09:20:24;;;;;;;1.75;1.65;;;21.20;70.60;;;;;;4950514;28;95390;-58
2022/04/17 09:23:00;;;;;;;1.90;1.80;;;21.20;70.60;;;;;;4961127;28;95914;-58
2022/04/17 09:25:31;;;;;;;1.75;1.65;;;21.20;70.60;;;;;;4955625;28;95631;-59
2022/04/17 09:28:04;;;;;;;2.15;2.05;;;21.20;70.60;;;;;;4955070;28;95687;-59
2022/04/17 09:30:35;;;;;;;2.10;2.00;;;21.20;71.20;;;;;;4953879;28;95828;-58
2022/04/17 09:33:11;;;;;;;2.40;2.03;;;21.20;70.60;;;;;;4964337;28;96042;-59
2022/04/17 09:35:55;;;;;;;1.50;1.40;;;21.20;70.40;;;;;;4962216;28;95733;-59
2022/04/17 09:38:28;;;;;;;2.03;1.88;;;21.20;70.60;;;;;;4953557;28;98829;-59
2022/04/17 09:41:13;;;;;;;2.05;1.92;;;21.20;70.60;;;;;;4955930;28;95885;-57
2022/04/17 09:43:43;;;;;;;1.90;1.80;;;21.20;70.60;;;;;;4979642;28;95961;-58
2022/04/17 09:46:15;;;;;;;2.15;1.98;;;21.10;70.50;;;;;;4950904;28;97563;-58
2022/04/17 09:48:46;;;;;;;1.70;1.60;;;21.20;70.60;;;;;;4958158;28;95628;-59
2022/04/17 09:51:30;;;;;;;2.00;1.90;;;21.10;70.60;;;;;;4950411;28;95877;-57
2022/04/17 09:54:05;;;;;;;3.25;1.77;;;21.20;70.60;;;;;;4950783;28;95864;-55
2022/04/17 09:56:41;;;;;;;2.08;1.88;;;21.20;70.60;;;;;;4951527;28;95869;-58
2022/04/17 09:59:23;;;;;;;2.38;2.17;;;21.20;70.50;;;;;;4954441;28;95946;-57
2022/04/17 10:01:56;;;;;;;2.03;1.90;;;21.10;70.50;;;;;;4948054;28;95882;-59
2022/04/17 10:04:29;;;;;;;1.90;1.70;;;21.10;70.50;;;;;;4964735;28;95779;-58
2022/04/17 10:07:02;;;;;;;3.47;1.80;;;21.10;70.60;;;;;;4962818;28;95539;-57
2022/04/17 10:09:32;;;;;;;1.73;1.63;;;21.10;70.50;;;;;;4966626;28;95810;-57
2022/04/17 10:12:03;;;;;;;1.97;1.40;;;21.10;70.50;;;;;;4957753;28;95225;-56
2022/04/17 10:14:36;;;;;;;2.20;2.00;;;21.10;70.50;;;;;;4952641;28;95832;-58
2022/04/17 10:17:09;;;;;;;1.98;1.88;;;21.20;70.40;;;;;;4946604;28;96635;-59
2022/04/17 10:19:43;;;;;;;2.35;1.70;;;21.10;70.40;;;;;;4956111;28;95645;-59
2022/04/17 10:22:18;;;;;;;1.70;1.60;;;21.10;70.10;;;;;;4971697;28;95865;-58
2022/04/17 10:24:54;;;;;;;2.05;1.88;;;21.10;70.40;;;;;;4958501;28;96016;-57
2022/04/17 10:27:33;;;;;;;2.08;1.90;;;21.10;70.50;;;;;;4953796;28;96022;-56
2022/04/17 10:30:12;;;;;;;2.42;1.80;;;21.10;70.40;;;;;;4963350;28;95536;-58
2022/04/17 10:33:16;;;;;;;1.70;1.60;;;21.10;70.50;;;;;;4956562;28;95948;-59
2022/04/17 10:35:57;;;;;;;2.05;1.92;;;21.10;70.50;;;;;;4957058;28;96354;-59
2022/04/17 10:38:54;;;;;;;2.90;1.88;;;21.10;70.40;;;;;;4951909;28;95850;-57
2022/04/17 10:41:25;;;;;;;1.50;1.40;;;21.10;70.50;;;;;;4952345;28;99705;-58
2022/04/17 10:43:58;;;;;;;2.73;1.90;;;21.10;70.50;;;;;;4964463;28;96068;-58
2022/04/17 10:46:29;;;;;;;1.40;1.30;;;21.10;70.60;;;;;;4937734;28;95903;-57
2022/04/17 10:49:02;;;;;;;1.77;1.67;;;21.10;70.50;;;;;;4931861;28;95743;-59
2022/04/17 10:51:36;;;;;;;2.20;1.90;;;21.10;70.50;;;;;;4941041;28;98526;-58
2022/04/17 10:54:13;;;;;;;1.75;1.65;;;21.10;70.50;;;;;;4938071;28;95734;-59
2022/04/17 10:56:55;;;;;;;2.10;1.90;;;21.00;70.60;;;;;;4937300;28;95833;-59
2022/04/17 10:59:33;;;;;;;1.92;1.83;;;21.10;70.50;;;;;;4944976;28;96021;-57
2022/04/17 11:02:10;;;;;;;2.65;2.25;;;21.00;70.40;;;;;;4948983;28;96071;-58
2022/04/17 11:04:53;;;;;;;1.60;1.50;;;21.00;70.50;;;;;;4955214;28;95371;-59
2022/04/17 11:07:31;;;;;;;2.03;1.83;;;21.10;70.50;;;;;;4955195;28;96591;-57
2022/04/17 11:10:07;;;;;;;2.45;1.90;;;21.10;70.50;;;;;;4958058;28;95874;-57
2022/04/17 11:12:52;;;;;;;2.70;1.92;;;21.00;70.50;;;;;;4959920;28;95726;-56
2022/04/17 11:15:23;;;;;;;1.70;1.60;;;21.00;70.50;;;;;;4949164;28;95855;-56
2022/04/17 11:18:01;;;;;;;1.92;1.83;;;21.00;70.40;;;;;;4948651;28;95890;-55
2022/04/17 11:20:34;;;;;;;2.15;1.75;;;21.00;70.40;;;;;;4950409;28;95532;-57
2022/04/17 11:23:05;;;;;;;1.80;1.70;;;21.00;70.40;;;;;;4953108;28;95846;-59
2022/04/17 11:25:49;;;;;;;;;;;21.00;70.30;;;;;;4963611;28;95849;-57
2022/04/17 11:28:35;;;;;;;1.85;1.75;;;21.00;70.50;;;;;;4957947;28;95900;-58
2022/04/17 11:31:06;;;;;;;1.70;1.60;;;21.00;70.50;;;;;;4943324;28;95948;-56
2022/04/17 11:33:37;;;;;;;1.80;1.70;;;21.00;70.40;;;;;;4953430;28;95728;-57
2022/04/17 11:36:11;;;;;;;1.70;1.60;;;21.00;70.50;;;;;;4950620;28;95727;-58
2022/04/17 11:38:46;;;;;;;1.63;1.52;;;21.00;70.50;;;;;;4957759;28;96099;-57
2022/04/17 11:41:18;;;;;;;1.70;1.60;;;21.00;70.50;;;;;;4954624;28;95954;-57
2022/04/17 11:44:05;;;;;;;1.50;1.40;;;21.00;70.50;;;;;;4960768;28;95553;-58
2022/04/17 11:46:36;;;;;;;1.70;1.60;;;21.00;70.60;;;;;;4971288;28;95861;-59
2022/04/17 11:49:06;;;;;;;1.85;1.70;;;21.00;70.70;;;;;;4951528;28;95902;-57
2022/04/17 11:51:43;;;;;;;1.77;1.67;;;21.00;70.70;;;;;;4963050;28;95935;-60
2022/04/17 11:54:32;;;;;;;1.65;1.55;;;21.00;70.70;;;;;;4965246;28;95540;-59
2022/04/17 11:57:02;;;;;;;1.63;1.52;;;20.90;70.90;;;;;;4952831;28;95379;-59
2022/04/17 11:59:54;;;;;;;2.45;1.75;;;20.90;71.00;;;;;;4949415;28;96674;-57
2022/04/17 12:02:25;;;;;;;1.63;1.52;;;20.90;71.00;;;;;;4937337;28;96226;-58
2022/04/17 12:05:07;;;;;;;1.77;1.67;;;20.90;71.10;;;;;;4942765;28;96062;-58
2022/04/17 12:07:39;;;;;;;1.77;1.63;;;20.90;71.20;;;;;;4930318;28;95743;-62
2022/04/17 12:10:14;;;;;;;2.08;1.90;;;20.90;71.30;;;;;;4934150;28;95782;-58
2022/04/17 12:12:45;;;;;;;1.63;1.50;;;20.90;71.40;;;;;;4935269;28;95894;-58
2022/04/17 12:15:18;;;;;;;;;;;20.90;71.40;;;;;;4928654;28;95477;-58
2022/04/17 12:18:01;;;;;;;1.95;1.80;;;20.90;71.40;;;;;;4940353;28;95740;-56
2022/04/17 12:20:33;;;;;;;1.92;1.70;;;20.90;71.40;;;;;;4930020;28;95875;-57
2022/04/17 12:23:05;;;;;;;1.70;1.60;;;20.90;71.50;;;;;;4928496;28;95368;-58
2022/04/17 12:25:37;;;;;;;1.77;1.67;;;20.80;71.60;;;;;;4939688;28;95531;-58
2022/04/17 12:28:07;;;;;;;2.30;2.10;;;20.80;71.70;;;;;;4937263;28;95754;-59
2022/04/17 12:30:37;;;;;;;2.10;1.77;;;20.80;71.80;;;;;;4929565;28;96486;-58
2022/04/17 12:33:30;;;;;;;1.88;1.77;;;20.80;71.90;;;;;;4952151;28;96477;-58
2022/04/17 12:36:03;;;;;;;1.85;1.60;;;20.80;72.00;;;;;;4958864;28;95996;-58
2022/04/17 12:38:40;;;;;;;2.83;2.03;;;20.80;72.10;;;;;;4954183;28;95345;-58
2022/04/17 12:41:18;;;;;;;2.95;1.67;;;20.80;72.10;;;;;;4947652;28;96864;-56
2022/04/17 12:43:52;;;;;;;1.75;1.65;;;20.80;72.20;;;;;;4954988;28;95724;-58
2022/04/17 12:46:35;;;;;;;2.05;1.58;;;20.70;72.20;;;;;;4953484;28;96094;-59
2022/04/17 12:49:14;;;;;;;1.70;1.60;;;20.70;72.40;;;;;;4955431;28;96104;-57
2022/04/17 12:51:59;;;;;;;1.85;1.50;;;20.70;72.40;;;;;;4966545;28;96427;-57
2022/04/17 12:54:34;;;;;;;1.38;1.27;;;20.70;72.50;;;;;;4950966;28;97622;-56
2022/04/17 12:57:11;;;;;;;1.60;1.50;;;20.70;72.50;;;;;;4955383;28;96038;-58
2022/04/17 12:59:48;;;;;;;1.65;1.55;;;20.70;72.50;;;;;;4966215;28;95765;-55
2022/04/17 13:02:26;;;;;;;1.60;1.40;;;20.70;72.60;;;;;;4952851;28;98638;-57
2022/04/17 13:04:59;;;;;;;1.92;1.80;;;20.70;72.60;;;;;;4959812;28;95482;-56
2022/04/17 13:07:34;;;;;;;2.22;1.70;;;20.70;72.70;;;;;;4952807;28;95601;-50
2022/04/17 13:10:09;;;;;;;1.88;1.60;;;20.60;72.60;;;;;;4967432;28;95309;-57
2022/04/17 13:12:45;;;;;;;1.63;1.52;;;20.70;72.70;;;;;;4950852;28;95926;-57
2022/04/17 13:15:18;;;;;;;1.60;1.50;;;20.60;72.60;;;;;;4942734;28;95889;-58
2022/04/17 13:17:51;;;;;;;2.42;1.95;;;20.60;72.70;;;;;;4953274;28;95824;-55
2022/04/17 13:20:24;;;;;;;1.48;1.38;;;20.60;72.90;;;;;;4953088;28;95582;-57
2022/04/17 13:22:56;;;;;;;1.75;1.65;;;20.60;72.90;;;;;;4960064;28;96637;-58
2022/04/17 13:25:27;;;;;;;2.17;1.80;;;20.60;72.90;;;;;;4962061;28;95890;-57
2022/04/17 13:28:02;;;;;;;2.05;1.40;;;20.60;72.90;;;;;;4955484;28;95648;-57
2022/04/17 13:30:34;;;;;;;2.38;1.90;;;20.60;72.80;;;;;;4942945;28;95393;-57